sensor_id;sensor_type;location;lat;lon;timestamp;P1;durP1;ratioP1;P2;durP2;ratioP2
24644;SDS011;12780;45.502;9.146;2022-08-20T00:00:11;9.48;;;5.25;;
24644;SDS011;12780;45.502;9.146;2022-08-20T00:02:40;10.45;;;5.80;;
24644;SDS011;12780;45.502;9.146;2022-08-20T00:05:11;8.95;;;5.00;;
24644;SDS011;12780;45.502;9.146;2022-08-20T00:07:38;7.47;;;5.18;;
24644;SDS011;12780;45.502;9.146;2022-08-20T00:10:04;8.35;;;5.07;;
24644;SDS011;12780;45.502;9.146;2022-08-20T00:12:31;10.20;;;5.05;;
24644;SDS011;12780;45.502;9.146;2022-08-20T00:14:58;8.75;;;5.43;;
24644;SDS011;12780;45.502;9.146;2022-08-20T00:17:24;8.00;;;5.35;;
24644;SDS011;12780;45.502;9.146;2022-08-20T00:19:50;9.93;;;4.82;;
24644;SDS011;12780;45.502;9.146;2022-08-20T00:22:15;8.60;;;5.40;;
24644;SDS011;12780;45.502;9.146;2022-08-20T00:24:41;9.63;;;5.35;;
24644;SDS011;12780;45.502;9.146;2022-08-20T00:27:07;10.57;;;5.60;;
24644;SDS011;12780;45.502;9.146;2022-08-20T00:29:32;11.23;;;5.50;;
24644;SDS011;12780;45.502;9.146;2022-08-20T00:31:58;11.10;;;6.30;;
24644;SDS011;12780;45.502;9.146;2022-08-20T00:34:24;10.40;;;5.82;;
24644;SDS011;12780;45.502;9.146;2022-08-20T00:36:50;13.93;;;7.03;;
24644;SDS011;12780;45.502;9.146;2022-08-20T00:39:15;8.90;;;5.50;;
24644;SDS011;12780;45.502;9.146;2022-08-20T00:41:41;8.25;;;5.15;;
24644;SDS011;12780;45.502;9.146;2022-08-20T00:44:09;12.02;;;6.63;;
24644;SDS011;12780;45.502;9.146;2022-08-20T00:46:41;11.80;;;5.43;;
24644;SDS011;12780;45.502;9.146;2022-08-20T00:49:08;7.95;;;5.13;;
24644;SDS011;12780;45.502;9.146;2022-08-20T00:51:41;11.75;;;6.88;;
24644;SDS011;12780;45.502;9.146;2022-08-20T00:54:13;11.18;;;6.45;;
24644;SDS011;12780;45.502;9.146;2022-08-20T00:56:46;12.77;;;6.35;;
24644;SDS011;12780;45.502;9.146;2022-08-20T00:59:15;10.50;;;6.13;;
24644;SDS011;12780;45.502;9.146;2022-08-20T01:01:49;9.90;;;5.20;;
24644;SDS011;12780;45.502;9.146;2022-08-20T01:04:16;12.98;;;5.97;;
24644;SDS011;12780;45.502;9.146;2022-08-20T01:06:42;13.90;;;5.60;;
24644;SDS011;12780;45.502;9.146;2022-08-20T01:09:09;8.05;;;5.60;;
24644;SDS011;12780;45.502;9.146;2022-08-20T01:11:35;8.65;;;5.90;;
24644;SDS011;12780;45.502;9.146;2022-08-20T01:14:11;7.53;;;5.57;;
24644;SDS011;12780;45.502;9.146;2022-08-20T01:16:47;11.25;;;5.63;;
24644;SDS011;12780;45.502;9.146;2022-08-20T01:19:15;10.88;;;5.80;;
24644;SDS011;12780;45.502;9.146;2022-08-20T01:21:42;11.60;;;6.13;;
24644;SDS011;12780;45.502;9.146;2022-08-20T01:24:23;10.65;;;6.32;;
24644;SDS011;12780;45.502;9.146;2022-08-20T01:27:01;13.80;;;6.70;;
24644;SDS011;12780;45.502;9.146;2022-08-20T01:29:33;12.60;;;6.88;;
24644;SDS011;12780;45.502;9.146;2022-08-20T01:32:02;10.88;;;6.65;;
24644;SDS011;12780;45.502;9.146;2022-08-20T01:34:28;17.15;;;7.18;;
24644;SDS011;12780;45.502;9.146;2022-08-20T01:36:56;16.33;;;6.32;;
24644;SDS011;12780;45.502;9.146;2022-08-20T01:39:24;10.77;;;6.78;;
24644;SDS011;12780;45.502;9.146;2022-08-20T01:47:28;11.68;;;7.40;;
24644;SDS011;12780;45.502;9.146;2022-08-20T01:49:59;13.73;;;7.20;;
24644;SDS011;12780;45.502;9.146;2022-08-20T01:52:37;10.68;;;7.38;;
24644;SDS011;12780;45.502;9.146;2022-08-20T01:55:07;12.63;;;7.68;;
24644;SDS011;12780;45.502;9.146;2022-08-20T01:57:34;11.43;;;8.02;;
24644;SDS011;12780;45.502;9.146;2022-08-20T02:00:05;11.18;;;7.68;;
24644;SDS011;12780;45.502;9.146;2022-08-20T02:02:33;11.80;;;7.10;;
24644;SDS011;12780;45.502;9.146;2022-08-20T02:04:59;16.15;;;8.60;;
24644;SDS011;12780;45.502;9.146;2022-08-20T02:07:25;11.82;;;8.05;;
24644;SDS011;12780;45.502;9.146;2022-08-20T02:09:51;11.77;;;8.02;;
24644;SDS011;12780;45.502;9.146;2022-08-20T02:12:17;17.17;;;8.32;;
24644;SDS011;12780;45.502;9.146;2022-08-20T02:14:44;13.55;;;7.95;;
24644;SDS011;12780;45.502;9.146;2022-08-20T02:17:12;13.05;;;8.20;;
24644;SDS011;12780;45.502;9.146;2022-08-20T02:19:46;14.15;;;7.93;;
24644;SDS011;12780;45.502;9.146;2022-08-20T02:25:05;15.57;;;7.45;;
24644;SDS011;12780;45.502;9.146;2022-08-20T02:27:32;10.35;;;6.90;;
24644;SDS011;12780;45.502;9.146;2022-08-20T02:29:58;13.73;;;7.28;;
24644;SDS011;12780;45.502;9.146;2022-08-20T02:32:24;17.55;;;7.53;;
24644;SDS011;12780;45.502;9.146;2022-08-20T02:34:50;11.85;;;6.88;;
24644;SDS011;12780;45.502;9.146;2022-08-20T02:37:15;9.80;;;7.15;;
24644;SDS011;12780;45.502;9.146;2022-08-20T02:39:42;11.35;;;7.03;;
24644;SDS011;12780;45.502;9.146;2022-08-20T02:42:08;13.13;;;7.38;;
24644;SDS011;12780;45.502;9.146;2022-08-20T02:44:36;10.88;;;6.90;;
24644;SDS011;12780;45.502;9.146;2022-08-20T02:47:03;11.73;;;7.70;;
24644;SDS011;12780;45.502;9.146;2022-08-20T02:49:29;17.05;;;7.97;;
24644;SDS011;12780;45.502;9.146;2022-08-20T02:51:55;11.82;;;8.23;;
24644;SDS011;12780;45.502;9.146;2022-08-20T02:54:21;11.32;;;8.13;;
24644;SDS011;12780;45.502;9.146;2022-08-20T02:56:46;19.33;;;7.70;;
24644;SDS011;12780;45.502;9.146;2022-08-20T02:59:12;15.25;;;7.20;;
24644;SDS011;12780;45.502;9.146;2022-08-20T03:01:38;15.85;;;7.70;;
24644;SDS011;12780;45.502;9.146;2022-08-20T03:04:03;9.70;;;7.05;;
24644;SDS011;12780;45.502;9.146;2022-08-20T03:06:29;14.80;;;7.28;;
24644;SDS011;12780;45.502;9.146;2022-08-20T03:08:55;13.52;;;6.97;;
24644;SDS011;12780;45.502;9.146;2022-08-20T03:11:21;12.05;;;7.20;;
24644;SDS011;12780;45.502;9.146;2022-08-20T03:13:46;11.82;;;7.20;;
24644;SDS011;12780;45.502;9.146;2022-08-20T03:16:12;13.43;;;7.50;;
24644;SDS011;12780;45.502;9.146;2022-08-20T03:18:39;14.73;;;7.82;;
24644;SDS011;12780;45.502;9.146;2022-08-20T03:21:07;10.13;;;7.78;;
24644;SDS011;12780;45.502;9.146;2022-08-20T03:23:33;16.27;;;8.10;;
24644;SDS011;12780;45.502;9.146;2022-08-20T03:26:01;12.82;;;7.88;;
24644;SDS011;12780;45.502;9.146;2022-08-20T03:28:27;16.98;;;8.05;;
24644;SDS011;12780;45.502;9.146;2022-08-20T03:30:53;16.08;;;8.38;;
24644;SDS011;12780;45.502;9.146;2022-08-20T03:33:20;10.88;;;7.47;;
24644;SDS011;12780;45.502;9.146;2022-08-20T03:35:47;15.40;;;8.32;;
24644;SDS011;12780;45.502;9.146;2022-08-20T03:38:13;13.60;;;8.18;;
24644;SDS011;12780;45.502;9.146;2022-08-20T03:40:41;13.43;;;8.18;;
24644;SDS011;12780;45.502;9.146;2022-08-20T03:43:07;13.63;;;8.57;;
24644;SDS011;12780;45.502;9.146;2022-08-20T03:45:34;14.02;;;8.70;;
24644;SDS011;12780;45.502;9.146;2022-08-20T03:48:02;16.40;;;8.70;;
24644;SDS011;12780;45.502;9.146;2022-08-20T03:50:30;13.05;;;8.45;;
24644;SDS011;12780;45.502;9.146;2022-08-20T03:52:56;12.82;;;7.78;;
24644;SDS011;12780;45.502;9.146;2022-08-20T03:55:24;10.45;;;7.03;;
24644;SDS011;12780;45.502;9.146;2022-08-20T03:57:52;8.65;;;6.05;;
24644;SDS011;12780;45.502;9.146;2022-08-20T04:00:21;7.78;;;5.80;;
24644;SDS011;12780;45.502;9.146;2022-08-20T04:02:52;12.10;;;5.82;;
24644;SDS011;12780;45.502;9.146;2022-08-20T04:05:19;11.15;;;5.50;;
24644;SDS011;12780;45.502;9.146;2022-08-20T04:07:45;10.82;;;6.10;;
24644;SDS011;12780;45.502;9.146;2022-08-20T04:10:11;9.88;;;5.53;;
24644;SDS011;12780;45.502;9.146;2022-08-20T04:12:37;7.32;;;4.82;;
24644;SDS011;12780;45.502;9.146;2022-08-20T04:15:05;9.77;;;5.13;;
24644;SDS011;12780;45.502;9.146;2022-08-20T04:17:36;8.15;;;5.00;;
24644;SDS011;12780;45.502;9.146;2022-08-20T04:20:06;6.93;;;4.70;;
24644;SDS011;12780;45.502;9.146;2022-08-20T04:22:34;7.65;;;5.40;;
24644;SDS011;12780;45.502;9.146;2022-08-20T04:25:00;8.05;;;4.60;;
24644;SDS011;12780;45.502;9.146;2022-08-20T04:27:26;7.47;;;4.07;;
24644;SDS011;12780;45.502;9.146;2022-08-20T04:29:52;5.70;;;4.15;;
24644;SDS011;12780;45.502;9.146;2022-08-20T04:32:18;5.57;;;3.40;;
24644;SDS011;12780;45.502;9.146;2022-08-20T04:34:45;8.18;;;3.38;;
24644;SDS011;12780;45.502;9.146;2022-08-20T04:37:10;5.60;;;3.47;;
24644;SDS011;12780;45.502;9.146;2022-08-20T04:39:37;4.80;;;3.65;;
24644;SDS011;12780;45.502;9.146;2022-08-20T04:42:03;7.65;;;3.58;;
24644;SDS011;12780;45.502;9.146;2022-08-20T04:44:28;5.60;;;3.45;;
24644;SDS011;12780;45.502;9.146;2022-08-20T04:46:54;4.95;;;3.00;;
24644;SDS011;12780;45.502;9.146;2022-08-20T04:49:20;7.85;;;3.97;;
24644;SDS011;12780;45.502;9.146;2022-08-20T04:51:49;7.82;;;4.55;;
24644;SDS011;12780;45.502;9.146;2022-08-20T04:54:14;7.80;;;4.10;;
24644;SDS011;12780;45.502;9.146;2022-08-20T04:56:40;7.43;;;3.47;;
24644;SDS011;12780;45.502;9.146;2022-08-20T04:59:06;5.60;;;3.60;;
24644;SDS011;12780;45.502;9.146;2022-08-20T05:01:32;8.05;;;3.70;;
24644;SDS011;12780;45.502;9.146;2022-08-20T05:03:58;7.32;;;3.35;;
24644;SDS011;12780;45.502;9.146;2022-08-20T05:06:26;6.88;;;3.20;;
24644;SDS011;12780;45.502;9.146;2022-08-20T05:08:54;7.65;;;3.05;;
24644;SDS011;12780;45.502;9.146;2022-08-20T05:11:22;5.75;;;3.13;;
24644;SDS011;12780;45.502;9.146;2022-08-20T05:13:48;4.15;;;2.70;;
24644;SDS011;12780;45.502;9.146;2022-08-20T05:16:17;4.50;;;2.38;;
24644;SDS011;12780;45.502;9.146;2022-08-20T05:18:44;6.07;;;2.47;;
24644;SDS011;12780;45.502;9.146;2022-08-20T05:21:10;6.00;;;2.47;;
24644;SDS011;12780;45.502;9.146;2022-08-20T05:23:37;3.05;;;2.50;;
24644;SDS011;12780;45.502;9.146;2022-08-20T05:26:06;4.05;;;2.50;;
24644;SDS011;12780;45.502;9.146;2022-08-20T05:28:33;3.45;;;2.42;;
24644;SDS011;12780;45.502;9.146;2022-08-20T05:31:02;9.20;;;3.30;;
24644;SDS011;12780;45.502;9.146;2022-08-20T05:33:31;4.93;;;2.20;;
24644;SDS011;12780;45.502;9.146;2022-08-20T05:35:57;5.95;;;2.45;;
24644;SDS011;12780;45.502;9.146;2022-08-20T05:38:24;3.20;;;2.40;;
24644;SDS011;12780;45.502;9.146;2022-08-20T05:40:51;3.50;;;2.30;;
24644;SDS011;12780;45.502;9.146;2022-08-20T05:43:17;8.50;;;2.70;;
24644;SDS011;12780;45.502;9.146;2022-08-20T05:45:44;4.38;;;2.50;;
24644;SDS011;12780;45.502;9.146;2022-08-20T05:48:11;4.82;;;2.30;;
24644;SDS011;12780;45.502;9.146;2022-08-20T05:50:41;4.53;;;2.50;;
24644;SDS011;12780;45.502;9.146;2022-08-20T05:53:08;4.65;;;2.83;;
24644;SDS011;12780;45.502;9.146;2022-08-20T05:55:33;5.55;;;2.53;;
24644;SDS011;12780;45.502;9.146;2022-08-20T05:58:04;3.70;;;2.53;;
24644;SDS011;12780;45.502;9.146;2022-08-20T06:00:32;4.07;;;2.53;;
24644;SDS011;12780;45.502;9.146;2022-08-20T06:02:59;4.47;;;2.83;;
24644;SDS011;12780;45.502;9.146;2022-08-20T06:05:44;7.95;;;2.33;;
24644;SDS011;12780;45.502;9.146;2022-08-20T06:08:10;4.20;;;2.90;;
24644;SDS011;12780;45.502;9.146;2022-08-20T06:10:37;6.03;;;2.40;;
24644;SDS011;12780;45.502;9.146;2022-08-20T06:13:04;3.55;;;2.38;;
24644;SDS011;12780;45.502;9.146;2022-08-20T06:15:31;4.97;;;3.15;;
24644;SDS011;12780;45.502;9.146;2022-08-20T06:17:58;4.45;;;2.63;;
24644;SDS011;12780;45.502;9.146;2022-08-20T06:20:24;3.55;;;2.50;;
24644;SDS011;12780;45.502;9.146;2022-08-20T06:22:50;3.15;;;2.60;;
24644;SDS011;12780;45.502;9.146;2022-08-20T06:25:15;3.20;;;2.40;;
24644;SDS011;12780;45.502;9.146;2022-08-20T06:27:41;4.57;;;2.45;;
24644;SDS011;12780;45.502;9.146;2022-08-20T06:30:09;4.15;;;2.33;;
24644;SDS011;12780;45.502;9.146;2022-08-20T06:32:37;6.28;;;2.85;;
24644;SDS011;12780;45.502;9.146;2022-08-20T06:35:03;2.95;;;2.35;;
24644;SDS011;12780;45.502;9.146;2022-08-20T06:37:31;5.53;;;2.15;;
24644;SDS011;12780;45.502;9.146;2022-08-20T06:40:20;5.05;;;2.22;;
24644;SDS011;12780;45.502;9.146;2022-08-20T06:42:48;3.42;;;1.98;;
24644;SDS011;12780;45.502;9.146;2022-08-20T06:45:22;3.78;;;2.38;;
24644;SDS011;12780;45.502;9.146;2022-08-20T06:47:50;3.85;;;2.30;;
24644;SDS011;12780;45.502;9.146;2022-08-20T06:50:18;3.70;;;2.13;;
24644;SDS011;12780;45.502;9.146;2022-08-20T06:52:45;4.18;;;1.92;;
24644;SDS011;12780;45.502;9.146;2022-08-20T06:55:12;4.50;;;2.20;;
24644;SDS011;12780;45.502;9.146;2022-08-20T06:57:39;4.40;;;2.40;;
24644;SDS011;12780;45.502;9.146;2022-08-20T07:00:07;4.65;;;2.30;;
24644;SDS011;12780;45.502;9.146;2022-08-20T07:02:36;6.65;;;2.30;;
24644;SDS011;12780;45.502;9.146;2022-08-20T07:05:02;4.10;;;1.80;;
24644;SDS011;12780;45.502;9.146;2022-08-20T07:07:29;2.83;;;2.00;;
24644;SDS011;12780;45.502;9.146;2022-08-20T07:10:06;5.32;;;2.00;;
24644;SDS011;12780;45.502;9.146;2022-08-20T07:12:34;6.85;;;2.08;;
24644;SDS011;12780;45.502;9.146;2022-08-20T07:15:01;2.75;;;1.90;;
24644;SDS011;12780;45.502;9.146;2022-08-20T07:17:31;7.07;;;1.92;;
24644;SDS011;12780;45.502;9.146;2022-08-20T07:19:56;2.60;;;1.77;;
24644;SDS011;12780;45.502;9.146;2022-08-20T07:22:22;4.18;;;2.00;;
24644;SDS011;12780;45.502;9.146;2022-08-20T07:24:49;6.03;;;1.77;;
24644;SDS011;12780;45.502;9.146;2022-08-20T07:27:19;2.92;;;1.70;;
24644;SDS011;12780;45.502;9.146;2022-08-20T07:29:46;2.85;;;1.67;;
24644;SDS011;12780;45.502;9.146;2022-08-20T07:32:30;4.80;;;1.90;;
24644;SDS011;12780;45.502;9.146;2022-08-20T07:35:00;2.78;;;2.13;;
24644;SDS011;12780;45.502;9.146;2022-08-20T07:37:28;3.30;;;1.88;;
24644;SDS011;12780;45.502;9.146;2022-08-20T07:39:54;3.95;;;1.70;;
24644;SDS011;12780;45.502;9.146;2022-08-20T07:42:20;2.05;;;1.60;;
24644;SDS011;12780;45.502;9.146;2022-08-20T07:44:45;2.60;;;1.80;;
24644;SDS011;12780;45.502;9.146;2022-08-20T07:47:11;3.90;;;1.80;;
24644;SDS011;12780;45.502;9.146;2022-08-20T07:49:37;12.20;;;2.38;;
24644;SDS011;12780;45.502;9.146;2022-08-20T07:52:04;4.07;;;1.80;;
24644;SDS011;12780;45.502;9.146;2022-08-20T07:54:30;4.05;;;1.75;;
24644;SDS011;12780;45.502;9.146;2022-08-20T07:57:00;2.47;;;1.70;;
24644;SDS011;12780;45.502;9.146;2022-08-20T07:59:29;3.65;;;1.88;;
24644;SDS011;12780;45.502;9.146;2022-08-20T08:01:55;3.95;;;1.80;;
24644;SDS011;12780;45.502;9.146;2022-08-20T08:04:22;4.65;;;2.00;;
24644;SDS011;12780;45.502;9.146;2022-08-20T08:06:49;3.05;;;1.83;;
24644;SDS011;12780;45.502;9.146;2022-08-20T08:09:15;3.13;;;1.60;;
24644;SDS011;12780;45.502;9.146;2022-08-20T08:11:42;2.28;;;1.70;;
24644;SDS011;12780;45.502;9.146;2022-08-20T08:14:20;2.90;;;1.85;;
24644;SDS011;12780;45.502;9.146;2022-08-20T08:16:52;2.50;;;1.80;;
24644;SDS011;12780;45.502;9.146;2022-08-20T08:19:21;2.83;;;2.00;;
24644;SDS011;12780;45.502;9.146;2022-08-20T08:21:47;1.92;;;1.50;;
24644;SDS011;12780;45.502;9.146;2022-08-20T08:24:13;1.90;;;1.70;;
24644;SDS011;12780;45.502;9.146;2022-08-20T08:26:41;2.90;;;1.83;;
24644;SDS011;12780;45.502;9.146;2022-08-20T08:29:07;8.55;;;2.33;;
24644;SDS011;12780;45.502;9.146;2022-08-20T08:31:33;3.88;;;2.00;;
24644;SDS011;12780;45.502;9.146;2022-08-20T08:33:59;2.47;;;1.90;;
24644;SDS011;12780;45.502;9.146;2022-08-20T08:36:24;2.45;;;1.83;;
24644;SDS011;12780;45.502;9.146;2022-08-20T08:38:51;2.17;;;1.70;;
24644;SDS011;12780;45.502;9.146;2022-08-20T08:41:29;2.40;;;1.77;;
24644;SDS011;12780;45.502;9.146;2022-08-20T08:46:26;2.60;;;1.77;;
24644;SDS011;12780;45.502;9.146;2022-08-20T08:48:55;2.00;;;1.65;;
24644;SDS011;12780;45.502;9.146;2022-08-20T08:51:27;2.95;;;1.75;;
24644;SDS011;12780;45.502;9.146;2022-08-20T08:53:59;1.83;;;1.60;;
24644;SDS011;12780;45.502;9.146;2022-08-20T08:56:26;2.00;;;1.73;;
24644;SDS011;12780;45.502;9.146;2022-08-20T08:58:55;2.92;;;2.10;;
24644;SDS011;12780;45.502;9.146;2022-08-20T09:01:24;1.83;;;1.67;;
24644;SDS011;12780;45.502;9.146;2022-08-20T09:03:50;3.15;;;1.88;;
24644;SDS011;12780;45.502;9.146;2022-08-20T09:06:18;2.58;;;1.85;;
24644;SDS011;12780;45.502;9.146;2022-08-20T09:08:48;4.03;;;1.80;;
24644;SDS011;12780;45.502;9.146;2022-08-20T09:11:18;3.58;;;1.80;;
24644;SDS011;12780;45.502;9.146;2022-08-20T09:13:46;3.33;;;1.80;;
24644;SDS011;12780;45.502;9.146;2022-08-20T09:16:11;5.13;;;2.00;;
24644;SDS011;12780;45.502;9.146;2022-08-20T09:18:38;2.90;;;1.73;;
24644;SDS011;12780;45.502;9.146;2022-08-20T09:21:05;6.53;;;2.50;;
24644;SDS011;12780;45.502;9.146;2022-08-20T09:23:31;2.65;;;1.92;;
24644;SDS011;12780;45.502;9.146;2022-08-20T09:25:57;3.08;;;1.77;;
24644;SDS011;12780;45.502;9.146;2022-08-20T09:28:23;7.05;;;1.90;;
24644;SDS011;12780;45.502;9.146;2022-08-20T09:30:48;2.80;;;1.70;;
24644;SDS011;12780;45.502;9.146;2022-08-20T09:33:14;4.07;;;2.22;;
24644;SDS011;12780;45.502;9.146;2022-08-20T09:35:40;2.40;;;1.80;;
24644;SDS011;12780;45.502;9.146;2022-08-20T09:38:06;2.38;;;1.70;;
24644;SDS011;12780;45.502;9.146;2022-08-20T09:40:32;3.97;;;1.60;;
24644;SDS011;12780;45.502;9.146;2022-08-20T09:42:58;4.43;;;2.42;;
24644;SDS011;12780;45.502;9.146;2022-08-20T09:45:24;3.58;;;2.05;;
24644;SDS011;12780;45.502;9.146;2022-08-20T09:47:50;2.67;;;1.90;;
24644;SDS011;12780;45.502;9.146;2022-08-20T09:50:16;4.38;;;1.90;;
24644;SDS011;12780;45.502;9.146;2022-08-20T09:52:42;4.28;;;1.60;;
24644;SDS011;12780;45.502;9.146;2022-08-20T09:57:36;3.38;;;1.80;;
24644;SDS011;12780;45.502;9.146;2022-08-20T10:00:04;2.20;;;1.60;;
24644;SDS011;12780;45.502;9.146;2022-08-20T10:02:38;2.33;;;1.58;;
24644;SDS011;12780;45.502;9.146;2022-08-20T10:05:04;2.92;;;1.70;;
24644;SDS011;12780;45.502;9.146;2022-08-20T10:07:30;3.60;;;1.85;;
24644;SDS011;12780;45.502;9.146;2022-08-20T10:09:56;2.92;;;1.67;;
24644;SDS011;12780;45.502;9.146;2022-08-20T10:12:21;3.70;;;2.10;;
24644;SDS011;12780;45.502;9.146;2022-08-20T10:14:47;3.60;;;1.92;;
24644;SDS011;12780;45.502;9.146;2022-08-20T10:17:12;4.25;;;1.90;;
24644;SDS011;12780;45.502;9.146;2022-08-20T10:19:38;2.38;;;1.67;;
24644;SDS011;12780;45.502;9.146;2022-08-20T10:22:04;3.17;;;1.90;;
24644;SDS011;12780;45.502;9.146;2022-08-20T10:24:30;2.70;;;1.63;;
24644;SDS011;12780;45.502;9.146;2022-08-20T10:26:57;5.20;;;1.70;;
24644;SDS011;12780;45.502;9.146;2022-08-20T10:29:24;2.08;;;1.73;;
24644;SDS011;12780;45.502;9.146;2022-08-20T10:31:50;3.55;;;1.70;;
24644;SDS011;12780;45.502;9.146;2022-08-20T10:34:16;1.95;;;1.63;;
24644;SDS011;12780;45.502;9.146;2022-08-20T10:36:42;5.25;;;1.80;;
24644;SDS011;12780;45.502;9.146;2022-08-20T10:39:08;2.63;;;1.77;;
24644;SDS011;12780;45.502;9.146;2022-08-20T10:41:33;3.20;;;2.20;;
24644;SDS011;12780;45.502;9.146;2022-08-20T10:43:59;2.80;;;1.90;;
24644;SDS011;12780;45.502;9.146;2022-08-20T10:46:25;6.13;;;1.83;;
24644;SDS011;12780;45.502;9.146;2022-08-20T10:48:50;3.78;;;1.88;;
24644;SDS011;12780;45.502;9.146;2022-08-20T10:51:16;3.42;;;1.95;;
24644;SDS011;12780;45.502;9.146;2022-08-20T10:53:42;2.45;;;1.98;;
24644;SDS011;12780;45.502;9.146;2022-08-20T10:56:07;2.20;;;1.73;;
24644;SDS011;12780;45.502;9.146;2022-08-20T10:58:33;2.53;;;1.70;;
24644;SDS011;12780;45.502;9.146;2022-08-20T11:00:58;3.10;;;1.90;;
24644;SDS011;12780;45.502;9.146;2022-08-20T11:03:24;2.55;;;2.17;;
24644;SDS011;12780;45.502;9.146;2022-08-20T11:05:50;7.65;;;2.20;;
24644;SDS011;12780;45.502;9.146;2022-08-20T11:08:15;5.40;;;2.08;;
24644;SDS011;12780;45.502;9.146;2022-08-20T11:10:41;2.53;;;1.80;;
24644;SDS011;12780;45.502;9.146;2022-08-20T11:13:07;2.88;;;2.15;;
24644;SDS011;12780;45.502;9.146;2022-08-20T11:15:35;2.45;;;1.80;;
24644;SDS011;12780;45.502;9.146;2022-08-20T11:18:03;5.07;;;1.95;;
24644;SDS011;12780;45.502;9.146;2022-08-20T11:20:29;2.97;;;1.60;;
24644;SDS011;12780;45.502;9.146;2022-08-20T11:22:56;3.35;;;1.90;;
24644;SDS011;12780;45.502;9.146;2022-08-20T11:25:22;1.60;;;1.42;;
24644;SDS011;12780;45.502;9.146;2022-08-20T11:27:49;5.93;;;1.63;;
24644;SDS011;12780;45.502;9.146;2022-08-20T11:30:19;3.45;;;1.30;;
24644;SDS011;12780;45.502;9.146;2022-08-20T11:32:47;3.28;;;1.80;;
24644;SDS011;12780;45.502;9.146;2022-08-20T11:35:13;5.22;;;1.85;;
24644;SDS011;12780;45.502;9.146;2022-08-20T11:37:39;2.47;;;1.90;;
24644;SDS011;12780;45.502;9.146;2022-08-20T11:40:05;1.83;;;1.63;;
24644;SDS011;12780;45.502;9.146;2022-08-20T11:42:32;3.08;;;1.67;;
24644;SDS011;12780;45.502;9.146;2022-08-20T11:44:58;7.75;;;2.03;;
24644;SDS011;12780;45.502;9.146;2022-08-20T11:47:25;8.18;;;1.98;;
24644;SDS011;12780;45.502;9.146;2022-08-20T11:49:59;2.95;;;1.50;;
24644;SDS011;12780;45.502;9.146;2022-08-20T11:52:31;3.53;;;1.65;;
24644;SDS011;12780;45.502;9.146;2022-08-20T11:54:57;2.63;;;2.00;;
24644;SDS011;12780;45.502;9.146;2022-08-20T11:57:24;2.53;;;1.98;;
24644;SDS011;12780;45.502;9.146;2022-08-20T11:59:52;3.03;;;1.90;;
24644;SDS011;12780;45.502;9.146;2022-08-20T12:02:19;3.05;;;2.05;;
24644;SDS011;12780;45.502;9.146;2022-08-20T12:04:45;2.60;;;1.60;;
24644;SDS011;12780;45.502;9.146;2022-08-20T12:07:11;3.03;;;2.10;;
24644;SDS011;12780;45.502;9.146;2022-08-20T12:09:39;3.45;;;1.70;;
24644;SDS011;12780;45.502;9.146;2022-08-20T12:12:05;2.72;;;1.70;;
24644;SDS011;12780;45.502;9.146;2022-08-20T12:14:31;7.65;;;1.90;;
24644;SDS011;12780;45.502;9.146;2022-08-20T12:16:57;1.70;;;1.52;;
24644;SDS011;12780;45.502;9.146;2022-08-20T12:19:31;2.00;;;1.80;;
24644;SDS011;12780;45.502;9.146;2022-08-20T12:21:56;3.20;;;1.70;;
24644;SDS011;12780;45.502;9.146;2022-08-20T12:24:22;4.35;;;1.65;;
24644;SDS011;12780;45.502;9.146;2022-08-20T12:26:48;2.42;;;1.88;;
24644;SDS011;12780;45.502;9.146;2022-08-20T12:29:13;4.05;;;2.00;;
24644;SDS011;12780;45.502;9.146;2022-08-20T12:31:39;2.60;;;1.77;;
24644;SDS011;12780;45.502;9.146;2022-08-20T12:34:04;2.53;;;1.70;;
24644;SDS011;12780;45.502;9.146;2022-08-20T12:36:30;5.63;;;1.70;;
24644;SDS011;12780;45.502;9.146;2022-08-20T12:38:55;3.58;;;1.70;;
24644;SDS011;12780;45.502;9.146;2022-08-20T12:41:21;4.05;;;1.70;;
24644;SDS011;12780;45.502;9.146;2022-08-20T12:43:46;5.05;;;1.77;;
24644;SDS011;12780;45.502;9.146;2022-08-20T12:46:12;3.03;;;1.35;;
24644;SDS011;12780;45.502;9.146;2022-08-20T12:48:38;2.67;;;1.50;;
24644;SDS011;12780;45.502;9.146;2022-08-20T12:51:03;3.92;;;1.35;;
24644;SDS011;12780;45.502;9.146;2022-08-20T12:53:29;2.17;;;1.27;;
24644;SDS011;12780;45.502;9.146;2022-08-20T12:55:54;3.35;;;1.50;;
24644;SDS011;12780;45.502;9.146;2022-08-20T12:58:20;2.75;;;1.50;;
24644;SDS011;12780;45.502;9.146;2022-08-20T13:00:45;1.80;;;1.30;;
24644;SDS011;12780;45.502;9.146;2022-08-20T13:03:12;4.93;;;2.00;;
24644;SDS011;12780;45.502;9.146;2022-08-20T13:05:38;2.13;;;1.30;;
24644;SDS011;12780;45.502;9.146;2022-08-20T13:08:05;3.00;;;1.30;;
24644;SDS011;12780;45.502;9.146;2022-08-20T13:10:36;3.25;;;1.50;;
24644;SDS011;12780;45.502;9.146;2022-08-20T13:13:10;1.95;;;1.20;;
24644;SDS011;12780;45.502;9.146;2022-08-20T13:15:36;1.70;;;1.38;;
24644;SDS011;12780;45.502;9.146;2022-08-20T13:18:03;3.22;;;1.20;;
24644;SDS011;12780;45.502;9.146;2022-08-20T13:20:30;5.32;;;1.63;;
24644;SDS011;12780;45.502;9.146;2022-08-20T13:22:56;2.33;;;1.40;;
24644;SDS011;12780;45.502;9.146;2022-08-20T13:25:22;1.73;;;1.20;;
24644;SDS011;12780;45.502;9.146;2022-08-20T13:27:48;2.70;;;1.60;;
24644;SDS011;12780;45.502;9.146;2022-08-20T13:30:18;4.78;;;1.40;;
24644;SDS011;12780;45.502;9.146;2022-08-20T13:32:44;2.80;;;1.27;;
24644;SDS011;12780;45.502;9.146;2022-08-20T13:35:11;1.20;;;1.10;;
24644;SDS011;12780;45.502;9.146;2022-08-20T13:37:38;2.50;;;1.15;;
24644;SDS011;12780;45.502;9.146;2022-08-20T13:40:04;2.78;;;1.50;;
24644;SDS011;12780;45.502;9.146;2022-08-20T13:42:32;2.38;;;1.38;;
24644;SDS011;12780;45.502;9.146;2022-08-20T13:44:58;1.33;;;1.23;;
24644;SDS011;12780;45.502;9.146;2022-08-20T13:47:25;1.45;;;1.17;;
24644;SDS011;12780;45.502;9.146;2022-08-20T13:49:59;1.27;;;1.05;;
24644;SDS011;12780;45.502;9.146;2022-08-20T13:52:29;2.58;;;1.00;;
24644;SDS011;12780;45.502;9.146;2022-08-20T13:54:55;1.27;;;0.98;;
24644;SDS011;12780;45.502;9.146;2022-08-20T13:57:21;2.05;;;1.05;;
24644;SDS011;12780;45.502;9.146;2022-08-20T13:59:49;4.10;;;1.08;;
24644;SDS011;12780;45.502;9.146;2022-08-20T14:02:16;1.83;;;1.20;;
24644;SDS011;12780;45.502;9.146;2022-08-20T14:04:42;6.70;;;1.10;;
24644;SDS011;12780;45.502;9.146;2022-08-20T14:09:35;1.42;;;1.00;;
24644;SDS011;12780;45.502;9.146;2022-08-20T14:12:03;1.25;;;0.98;;
24644;SDS011;12780;45.502;9.146;2022-08-20T14:14:29;3.92;;;1.02;;
24644;SDS011;12780;45.502;9.146;2022-08-20T14:16:54;4.70;;;1.13;;
24644;SDS011;12780;45.502;9.146;2022-08-20T14:19:20;3.25;;;1.00;;
24644;SDS011;12780;45.502;9.146;2022-08-20T14:21:45;2.08;;;1.00;;
24644;SDS011;12780;45.502;9.146;2022-08-20T14:24:11;3.65;;;1.00;;
24644;SDS011;12780;45.502;9.146;2022-08-20T14:26:36;5.78;;;1.23;;
24644;SDS011;12780;45.502;9.146;2022-08-20T14:29:02;2.05;;;1.30;;
24644;SDS011;12780;45.502;9.146;2022-08-20T14:31:27;2.28;;;0.90;;
24644;SDS011;12780;45.502;9.146;2022-08-20T14:33:53;2.53;;;1.05;;
24644;SDS011;12780;45.502;9.146;2022-08-20T14:36:19;1.85;;;1.10;;
24644;SDS011;12780;45.502;9.146;2022-08-20T14:38:44;5.15;;;1.20;;
24644;SDS011;12780;45.502;9.146;2022-08-20T14:41:10;6.15;;;1.23;;
24644;SDS011;12780;45.502;9.146;2022-08-20T14:43:36;2.85;;;1.15;;
24644;SDS011;12780;45.502;9.146;2022-08-20T14:46:01;1.35;;;1.23;;
24644;SDS011;12780;45.502;9.146;2022-08-20T14:48:27;5.28;;;1.20;;
24644;SDS011;12780;45.502;9.146;2022-08-20T14:50:52;1.88;;;1.20;;
24644;SDS011;12780;45.502;9.146;2022-08-20T14:53:20;5.00;;;1.20;;
24644;SDS011;12780;45.502;9.146;2022-08-20T14:55:46;1.70;;;1.10;;
24644;SDS011;12780;45.502;9.146;2022-08-20T14:58:13;2.00;;;1.38;;
24644;SDS011;12780;45.502;9.146;2022-08-20T15:00:41;1.35;;;1.02;;